Time;durP1;ratioP1;P1;durP2;ratioP2;P2;SDS_P1;SDS_P2;PMS_P1;PMS_P2;Temp;Humidity;BMP_temperature;BMP_pressure;BME280_temperature;BME280_humidity;BME280_pressure;Samples;Min_cycle;Max_cycle;Signal;HPM_P1;HPM_P2
2023/08/23 00:00:28;;;;;;;13.97;10.60;;;;;22.10;97105.00;;;;5072102;28;20203;-86
2023/08/23 00:03:18;;;;;;;13.80;11.07;;;;;22.40;97097.00;;;;5075381;28;20207;-84
2023/08/23 00:06:07;;;;;;;13.30;11.90;;;;;22.00;97100.00;;;;5071482;28;20204;-86
2023/08/23 00:08:56;;;;;;;13.40;11.33;;;;;21.70;97095.00;;;;5084590;28;20226;-87
2023/08/23 00:11:45;;;;;;;14.63;11.00;;;;;22.00;97100.00;;;;5081795;28;20206;-85
2023/08/23 00:14:34;;;;;;;13.70;11.33;;;;;22.10;97096.00;;;;5077880;28;20224;-86
2023/08/23 00:17:23;;;;;;;12.63;11.33;;;;;22.30;97094.00;;;;5092389;28;20222;-85
2023/08/23 00:20:14;;;;;;;14.93;11.27;;;;;22.50;97092.00;;;;5082366;28;20210;-85
2023/08/23 00:23:03;;;;;;;12.13;10.37;;;;;22.90;97095.00;;;;5079264;28;20204;-86
2023/08/23 00:25:52;;;;;;;15.50;11.67;;;;;22.80;97090.00;;;;5084081;28;20220;-86
2023/08/23 00:28:42;;;;;;;16.73;11.50;;;;;22.80;97091.00;;;;5085835;28;20278;-86
2023/08/23 00:31:31;;;;;;;12.37;11.07;;;;;22.40;97091.00;;;;5093402;28;20203;-86
2023/08/23 00:34:20;;;;;;;16.37;12.13;;;;;22.10;97078.00;;;;5076702;28;20598;-86
2023/08/23 00:37:10;;;;;;;16.83;11.93;;;;;22.00;97079.00;;;;5086031;28;20195;-86
2023/08/23 00:39:59;;;;;;;17.23;11.37;;;;;21.50;97072.00;;;;5068699;28;20681;-87
2023/08/23 00:42:49;;;;;;;14.17;12.33;;;;;21.50;97074.00;;;;5081447;28;20260;-86
2023/08/23 00:45:39;;;;;;;12.87;10.57;;;;;21.70;97077.00;;;;5074167;28;20222;-86
2023/08/23 00:48:28;;;;;;;11.83;10.60;;;;;21.90;97073.00;;;;5078524;28;20680;-85
2023/08/23 00:51:17;;;;;;;18.00;12.00;;;;;22.10;97077.00;;;;5079105;28;20665;-86
2023/08/23 00:54:09;;;;;;;16.00;11.50;;;;;21.80;97074.00;;;;5075979;28;20227;-86
2023/08/23 00:57:01;;;;;;;13.93;11.83;;;;;21.80;97068.00;;;;5074054;28;20691;-86
2023/08/23 00:59:50;;;;;;;17.10;12.33;;;;;22.20;97074.00;;;;5083596;28;20202;-86
2023/08/23 01:02:39;;;;;;;14.03;12.53;;;;;22.40;97068.00;;;;5088885;28;20207;-85
2023/08/23 01:05:36;;;;;;;13.13;11.77;;;;;22.30;97075.00;;;;5081477;28;20234;-86
2023/08/23 01:08:32;;;;;;;16.07;10.80;;;;;21.90;97068.00;;;;5074419;28;20304;-86
2023/08/23 01:11:28;;;;;;;13.60;9.77;;;;;21.70;97071.00;;;;5074456;28;20200;-87
2023/08/23 01:14:20;;;;;;;13.07;10.60;;;;;21.70;97064.00;;;;5071415;28;20224;-87
2023/08/23 01:17:10;;;;;;;12.30;10.90;;;;;21.60;97071.00;;;;5079203;28;20223;-85
2023/08/23 01:19:59;;;;;;;13.13;11.43;;;;;22.00;97070.00;;;;5073001;28;20559;-86
2023/08/23 01:22:52;;;;;;;12.37;10.83;;;;;22.10;97065.00;;;;5084431;28;20207;-85
2023/08/23 01:25:45;;;;;;;13.10;11.17;;;;;21.60;97071.00;;;;5083321;28;20230;-85
2023/08/23 01:28:34;;;;;;;12.80;10.63;;;;;21.40;97069.00;;;;5069028;28;20228;-86
2023/08/23 01:31:26;;;;;;;13.70;11.73;;;;;21.80;97069.00;;;;5078567;28;20235;-85
2023/08/23 01:34:27;;;;;;;14.27;11.90;;;;;22.00;97069.00;;;;5083555;28;20231;-87
2023/08/23 01:37:16;;;;;;;12.03;10.73;;;;;22.20;97064.00;;;;5082541;28;20214;-86
2023/08/23 01:40:08;;;;;;;15.57;11.57;;;;;22.30;97064.00;;;;5082698;28;20211;-85
2023/08/23 01:42:59;;;;;;;14.10;10.87;;;;;22.00;97066.00;;;;5078118;28;20215;-86
2023/08/23 01:45:48;;;;;;;11.90;10.47;;;;;21.50;97063.00;;;;5076292;28;20215;-86
2023/08/23 01:48:37;;;;;;;14.27;11.07;;;;;21.30;97071.00;;;;5073631;28;20219;-85
2023/08/23 01:51:26;;;;;;;16.00;12.13;;;;;21.20;97071.00;;;;5074063;28;20215;-86
2023/08/23 01:54:15;;;;;;;13.30;10.97;;;;;21.40;97064.00;;;;5074029;28;20223;-86
2023/08/23 01:57:04;;;;;;;12.53;10.87;;;;;21.50;97066.00;;;;5080953;28;20211;-85
2023/08/23 01:59:56;;;;;;;13.67;10.83;;;;;21.30;97063.00;;;;5079050;28;20226;-86
2023/08/23 02:02:45;;;;;;;12.73;11.23;;;;;21.20;97060.00;;;;5078866;28;20203;-85
2023/08/23 02:05:34;;;;;;;17.00;12.47;;;;;21.40;97065.00;;;;5078779;28;20226;-86
2023/08/23 02:08:23;;;;;;;14.10;11.23;;;;;21.40;97062.00;;;;5082433;28;20222;-86
2023/08/23 02:11:12;;;;;;;15.40;11.60;;;;;21.60;97063.00;;;;5074693;28;20199;-87
2023/08/23 02:14:01;;;;;;;13.20;10.97;;;;;21.60;97056.00;;;;5081142;28;20212;-86
2023/08/23 02:16:51;;;;;;;18.33;11.70;;;;;21.40;97060.00;;;;5077450;28;20217;-86
2023/08/23 02:19:40;;;;;;;13.27;10.67;;;;;21.20;97059.00;;;;5085828;28;20203;-86
2023/08/23 02:22:30;;;;;;;15.00;11.80;;;;;21.40;97058.00;;;;5082253;28;20215;-86
2023/08/23 02:25:19;;;;;;;14.47;11.17;;;;;21.50;97049.00;;;;5075214;28;20228;-85
2023/08/23 02:28:08;;;;;;;12.30;10.13;;;;;21.60;97045.00;;;;5074103;28;20218;-85
2023/08/23 02:31:03;;;;;;;12.43;11.23;;;;;21.20;97047.00;;;;5073068;28;20200;-85
2023/08/23 02:33:53;;;;;;;13.17;10.97;;;;;20.90;97042.00;;;;5085253;28;20630;-86
2023/08/23 02:36:42;;;;;;;16.47;11.40;;;;;20.50;97042.00;;;;5090275;28;20677;-87
2023/08/23 02:39:31;;;;;;;13.27;10.93;;;;;20.60;97041.00;;;;5077453;28;20204;-86
2023/08/23 02:42:20;;;;;;;12.23;10.40;;;;;20.20;97037.00;;;;5081581;28;20202;-86
2023/08/23 02:45:10;;;;;;;14.65;13.07;;;;;20.60;97044.00;;;;5082391;28;20386;-86
2023/08/23 02:47:59;;;;;;;14.83;12.43;;;;;21.00;97034.00;;;;5080888;28;20200;-85
2023/08/23 02:50:50;;;;;;;16.33;11.90;;;;;21.40;97033.00;;;;5080904;28;20578;-86
2023/08/23 02:53:39;;;;;;;16.07;10.73;;;;;21.30;97038.00;;;;5080799;28;20360;-86
2023/08/23 02:56:28;;;;;;;19.67;11.70;;;;;20.90;97027.00;;;;5080391;28;20208;-87
2023/08/23 02:59:17;;;;;;;15.13;10.60;;;;;20.60;97033.00;;;;5072700;28;20207;-87
2023/08/23 03:02:06;;;;;;;13.23;10.83;;;;;20.50;97033.00;;;;5074833;28;20211;-86
2023/08/23 03:04:56;;;;;;;14.53;10.47;;;;;20.30;97036.00;;;;5092671;28;20211;-87
2023/08/23 03:07:46;;;;;;;14.73;11.13;;;;;20.60;97026.00;;;;5088847;28;20200;-86
2023/08/23 03:10:35;;;;;;;16.43;12.27;;;;;21.00;97032.00;;;;5078061;28;20219;-85
2023/08/23 03:13:24;;;;;;;15.73;11.10;;;;;21.00;97020.00;;;;5079675;28;20207;-87
2023/08/23 03:16:13;;;;;;;12.67;11.37;;;;;21.10;97020.00;;;;5078166;28;20219;-86
2023/08/23 03:19:02;;;;;;;14.10;11.17;;;;;20.90;97021.00;;;;5073890;28;20207;-86
2023/08/23 03:21:51;;;;;;;15.53;12.43;;;;;20.60;97016.00;;;;5073937;28;20215;-86
2023/08/23 03:24:42;;;;;;;13.03;10.60;;;;;20.70;97016.00;;;;5084157;28;20227;-86
2023/08/23 03:27:31;;;;;;;16.27;12.73;;;;;21.00;97014.00;;;;5106002;28;20206;-85
2023/08/23 03:30:20;;;;;;;13.83;11.07;;;;;21.00;97012.00;;;;5125530;22;20226;-66
2023/08/23 03:33:09;;;;;;;14.73;11.03;;;;;20.50;97021.00;;;;5107087;27;20223;-68
2023/08/23 03:35:58;;;;;;;17.20;11.03;;;;;20.30;97018.00;;;;5109441;28;20670;-69
2023/08/23 03:38:47;;;;;;;13.90;11.30;;;;;20.60;97017.00;;;;5106860;28;20199;-67
2023/08/23 03:41:38;;;;;;;15.57;12.97;;;;;20.50;97017.00;;;;5110514;28;20209;-66
2023/08/23 03:44:27;;;;;;;13.23;11.10;;;;;21.00;97014.00;;;;5108154;28;20221;-66
2023/08/23 03:47:16;;;;;;;12.87;11.47;;;;;21.30;97024.00;;;;5109979;28;20583;-67
2023/08/23 03:50:05;;;;;;;16.03;11.53;;;;;21.30;97022.00;;;;5109213;28;20234;-67
2023/08/23 03:52:54;;;;;;;15.87;11.33;;;;;21.20;97019.00;;;;5110668;28;20603;-67
2023/08/23 03:55:43;;;;;;;12.83;10.47;;;;;21.20;97024.00;;;;5111433;27;20746;-66
2023/08/23 03:58:34;;;;;;;16.40;11.43;;;;;21.10;97016.00;;;;5108707;28;20206;-67
2023/08/23 04:01:23;;;;;;;17.97;11.97;;;;;21.30;97029.00;;;;5108623;28;20578;-66
2023/08/23 04:04:12;;;;;;;12.03;9.83;;;;;21.20;97024.00;;;;5104467;28;20778;-67
2023/08/23 04:07:01;;;;;;;13.67;10.83;;;;;20.90;97023.00;;;;5110125;28;20195;-67
2023/08/23 04:09:50;;;;;;;14.63;11.30;;;;;20.60;97028.00;;;;5102043;28;20230;-69
2023/08/23 04:12:39;;;;;;;12.77;11.43;;;;;20.50;97034.00;;;;5108694;28;20202;-66
2023/08/23 04:15:29;;;;;;;16.20;11.03;;;;;20.40;97024.00;;;;5109957;28;20201;-70
2023/08/23 04:18:18;;;;;;;16.27;12.63;;;;;20.60;97014.00;;;;5110253;28;20198;-67
2023/08/23 04:21:07;;;;;;;16.50;11.77;;;;;20.40;97024.00;;;;5104802;28;20195;-69
2023/08/23 04:23:56;;;;;;;15.77;10.97;;;;;20.50;97024.00;;;;5108360;28;20215;-67
2023/08/23 04:26:45;;;;;;;14.67;11.17;;;;;20.40;97023.00;;;;5102362;28;20692;-67
2023/08/23 04:29:34;;;;;;;13.93;11.00;;;;;20.40;97029.00;;;;5107982;28;20241;-69
2023/08/23 04:32:25;;;;;;;15.53;11.33;;;;;20.50;97012.00;;;;5109648;28;20202;-66
2023/08/23 04:35:14;;;;;;;14.90;11.97;;;;;20.70;97023.00;;;;5109102;28;20217;-66
2023/08/23 04:38:03;;;;;;;13.23;10.27;;;;;20.80;97032.00;;;;5102900;28;20230;-67
2023/08/23 04:41:00;;;;;;;14.43;10.47;;;;;20.70;97030.00;;;;5102019;28;20194;-68
2023/08/23 04:43:49;;;;;;;11.33;10.13;;;;;20.60;97036.00;;;;5101952;28;20218;-66
2023/08/23 04:46:38;;;;;;;15.30;11.60;;;;;21.20;97022.00;;;;5108310;28;20198;-67
2023/08/23 04:49:28;;;;;;;11.93;10.63;;;;;21.40;97030.00;;;;5108697;28;20210;-66
2023/08/23 04:52:17;;;;;;;15.13;10.60;;;;;21.20;97036.00;;;;5104979;28;20203;-66
2023/08/23 04:55:07;;;;;;;11.93;10.53;;;;;21.50;97039.00;;;;5107486;28;20222;-67
2023/08/23 04:57:56;;;;;;;21.97;12.27;;;;;21.20;97044.00;;;;5109566;28;20199;-67
2023/08/23 05:00:45;;;;;;;16.17;12.47;;;;;21.20;97042.00;;;;5106671;28;20202;-66
2023/08/23 05:03:35;;;;;;;16.33;10.37;;;;;21.30;97049.00;;;;5098488;28;20229;-69
2023/08/23 05:06:25;;;;;;;14.77;10.93;;;;;21.10;97038.00;;;;5109881;28;20206;-67
2023/08/23 05:09:14;;;;;;;13.37;10.90;;;;;21.30;97042.00;;;;5109786;28;20221;-68
2023/08/23 05:12:05;;;;;;;16.30;11.83;;;;;21.50;97049.00;;;;5102895;28;20225;-68
2023/08/23 05:14:54;;;;;;;13.77;10.97;;;;;21.80;97048.00;;;;5101547;28;20237;-67
2023/08/23 05:17:44;;;;;;;22.10;12.53;;;;;22.00;97046.00;;;;5099817;28;20202;-67
2023/08/23 05:20:33;;;;;;;15.30;11.07;;;;;22.30;97051.00;;;;5104288;28;20210;-68
2023/08/23 05:23:24;;;;;;;12.90;10.13;;;;;22.00;97051.00;;;;5100316;28;20226;-67
2023/08/23 05:26:13;;;;;;;19.33;12.80;;;;;21.80;97047.00;;;;5097023;28;20199;-69
2023/08/23 05:29:02;;;;;;;21.60;12.60;;;;;21.60;97045.00;;;;5087634;28;20199;-67
2023/08/23 05:31:51;;;;;;;18.90;12.83;;;;;22.50;97047.00;;;;5100759;28;20215;-68
2023/08/23 05:34:41;;;;;;;11.50;10.30;;;;;22.60;97046.00;;;;5105605;28;20226;-67
2023/08/23 05:37:30;;;;;;;13.80;10.30;;;;;22.60;97045.00;;;;5108140;28;20203;-67
2023/08/23 05:40:20;;;;;;;15.47;12.60;;;;;22.50;97044.00;;;;5108507;28;20574;-67
2023/08/23 05:43:09;;;;;;;15.50;10.43;;;;;22.50;97041.00;;;;5105042;28;20226;-68
2023/08/23 05:45:59;;;;;;;11.60;10.40;;;;;22.80;97050.00;;;;5102829;28;20198;-68
2023/08/23 05:48:50;;;;;;;15.63;11.50;;;;;22.50;97056.00;;;;5108453;28;20199;-68
2023/08/23 05:51:45;;;;;;;19.97;12.97;;;;;22.70;97064.00;;;;5107039;28;20218;-67
2023/08/23 05:54:35;;;;;;;24.13;13.10;;;;;22.80;97068.00;;;;5108022;28;20222;-67
2023/08/23 05:57:26;;;;;;;16.20;13.53;;;;;22.70;97067.00;;;;5108472;28;20194;-67
2023/08/23 06:00:15;;;;;;;20.73;13.53;;;;;23.20;97067.00;;;;5109225;28;20202;-67
2023/08/23 06:03:04;;;;;;;20.53;12.70;;;;;23.40;97088.00;;;;5097062;28;20222;-68
2023/08/23 06:05:55;;;;;;;13.47;11.27;;;;;23.40;97092.00;;;;5098685;28;20194;-66
2023/08/23 06:08:44;;;;;;;16.57;11.03;;;;;23.20;97094.00;;;;5097851;28;20199;-67
2023/08/23 06:11:33;;;;;;;14.23;11.93;;;;;23.50;97090.00;;;;5106763;28;20223;-66
2023/08/23 06:14:24;;;;;;;17.43;12.00;;;;;23.80;97080.00;;;;5106155;28;20225;-67
2023/08/23 06:17:13;;;;;;;12.13;9.83;;;;;24.00;97080.00;;;;5108224;28;20195;-66
2023/08/23 06:20:04;;;;;;;17.27;11.57;;;;;24.00;97081.00;;;;5103774;28;20206;-67
2023/08/23 06:22:53;;;;;;;12.07;10.20;;;;;24.00;97069.00;;;;5100209;28;20194;-69
2023/08/23 06:25:42;;;;;;;14.43;11.10;;;;;23.70;97076.00;;;;5107064;28;20215;-68
2023/08/23 06:28:31;;;;;;;17.60;12.20;;;;;23.70;97072.00;;;;5107636;28;20195;-67
2023/08/23 06:31:22;;;;;;;15.00;11.50;;;;;24.00;97071.00;;;;5106691;28;20219;-67
2023/08/23 06:34:11;;;;;;;18.33;11.13;;;;;24.30;97069.00;;;;5104229;28;20215;-67
2023/08/23 06:37:00;;;;;;;12.00;10.50;;;;;24.60;97070.00;;;;5106664;28;20203;-68
2023/08/23 06:39:49;;;;;;;22.60;11.60;;;;;24.10;97058.00;;;;5103281;28;20195;-68
2023/08/23 06:42:38;;;;;;;21.17;12.20;;;;;24.40;97061.00;;;;5106929;28;20190;-69
2023/08/23 06:45:27;;;;;;;15.37;11.43;;;;;25.00;97072.00;;;;5106752;28;20674;-67
2023/08/23 06:48:18;;;;;;;16.90;13.27;;;;;25.10;97076.00;;;;5102173;28;20205;-68
2023/08/23 06:51:07;;;;;;;27.73;16.17;;;;;25.00;97072.00;;;;5104681;28;20698;-68
2023/08/23 06:53:56;;;;;;;15.13;12.93;;;;;25.40;97075.00;;;;5106910;28;20215;-68
2023/08/23 06:56:49;;;;;;;15.57;12.13;;;;;25.50;97073.00;;;;5109289;28;20195;-68
2023/08/23 06:59:38;;;;;;;17.20;11.30;;;;;25.80;97072.00;;;;5109135;28;20195;-69
2023/08/23 07:02:27;;;;;;;15.50;10.47;;;;;25.40;97071.00;;;;5107907;28;20198;-67
2023/08/23 07:05:18;;;;;;;20.50;12.50;;;;;25.00;97074.00;;;;5107456;28;20214;-69
2023/08/23 07:08:07;;;;;;;18.80;11.83;;;;;25.20;97085.00;;;;5108189;28;20556;-67
2023/08/23 07:10:56;;;;;;;16.90;11.77;;;;;25.70;97084.00;;;;5107319;28;20215;-67
2023/08/23 07:13:45;;;;;;;12.07;10.77;;;;;25.80;97074.00;;;;5108503;28;20222;-67
2023/08/23 07:16:37;;;;;;;13.70;10.33;;;;;26.30;97075.00;;;;5106762;28;20206;-67
2023/08/23 07:19:26;;;;;;;10.53;9.43;;;;;26.30;97078.00;;;;5108088;28;20572;-67
2023/08/23 07:22:16;;;;;;;16.80;10.50;;;;;26.40;97079.00;;;;5108923;28;20198;-68
2023/08/23 07:25:06;;;;;;;13.57;11.53;;;;;26.60;97090.00;;;;5109780;28;20230;-67
2023/08/23 07:27:55;;;;;;;13.27;11.33;;;;;26.80;97077.00;;;;5106379;28;20701;-68
2023/08/23 07:30:46;;;;;;;17.53;11.93;;;;;27.00;97071.00;;;;5107698;28;20583;-67
2023/08/23 07:33:35;;;;;;;18.60;10.90;;;;;27.40;97069.00;;;;5107119;28;20359;-67
2023/08/23 07:36:24;;;;;;;19.13;11.30;;;;;27.50;97069.00;;;;5108026;28;20602;-66
2023/08/23 07:39:14;;;;;;;11.03;9.83;;;;;27.60;97072.00;;;;5107314;28;20205;-67
2023/08/23 07:42:04;;;;;;;20.07;12.50;;;;;27.60;97074.00;;;;5108384;28;20575;-68
2023/08/23 07:44:53;;;;;;;17.63;11.20;;;;;28.00;97066.00;;;;5107133;28;20223;-67
2023/08/23 07:47:42;;;;;;;19.37;10.47;;;;;27.50;97070.00;;;;5109028;28;20216;-68
2023/08/23 07:50:31;;;;;;;15.13;10.57;;;;;27.70;97062.00;;;;5108537;28;20577;-68
2023/08/23 07:53:20;;;;;;;14.10;10.63;;;;;28.30;97061.00;;;;5107264;28;20744;-67
2023/08/23 07:56:10;;;;;;;14.67;10.03;;;;;28.50;97071.00;;;;5104766;28;20208;-67
2023/08/23 07:59:01;;;;;;;11.70;9.63;;;;;29.00;97063.00;;;;5103658;28;20629;-68
2023/08/23 08:01:50;;;;;;;12.17;9.33;;;;;29.40;97063.00;;;;5105012;28;20205;-67
2023/08/23 08:04:39;;;;;;;12.23;9.97;;;;;29.60;97059.00;;;;5103654;28;20221;-67
2023/08/23 08:07:29;;;;;;;11.90;9.13;;;;;29.90;97059.00;;;;5098836;28;20209;-68
2023/08/23 08:10:32;;;;;;;11.20;10.07;;;;;29.80;97064.00;;;;5107092;28;20674;-67
2023/08/23 08:13:23;;;;;;;17.67;11.47;;;;;30.10;97072.00;;;;5108079;28;20225;-68
2023/08/23 08:16:13;;;;;;;15.33;10.17;;;;;30.20;97075.00;;;;5105419;28;20222;-68
2023/08/23 08:19:02;;;;;;;15.10;10.00;;;;;30.50;97074.00;;;;5103951;28;20206;-68
2023/08/23 08:21:51;;;;;;;13.07;9.60;;;;;30.70;97083.00;;;;5101938;28;20970;-68
2023/08/23 08:24:40;;;;;;;13.13;10.63;;;;;30.70;97085.00;;;;5099235;28;20232;-69
2023/08/23 08:27:29;;;;;;;13.90;9.47;;;;;30.70;97098.00;;;;5106275;28;20200;-68
2023/08/23 08:30:20;;;;;;;12.53;9.53;;;;;30.50;97097.00;;;;5109129;28;20225;-68
2023/08/23 08:33:09;;;;;;;12.83;9.87;;;;;30.60;97101.00;;;;5103506;28;20229;-67
2023/08/23 08:35:58;;;;;;;12.03;9.70;;;;;30.50;97103.00;;;;5102924;28;20204;-68
2023/08/23 08:38:47;;;;;;;11.63;10.30;;;;;30.90;97096.00;;;;5102614;28;20202;-69
2023/08/23 08:41:36;;;;;;;13.30;10.70;;;;;31.20;97092.00;;;;5108777;28;20206;-70
2023/08/23 08:44:25;;;;;;;17.00;10.00;;;;;31.20;97101.00;;;;5099324;28;20221;-68
2023/08/23 08:47:15;;;;;;;14.90;10.03;;;;;31.20;97102.00;;;;5105144;28;20205;-70
2023/08/23 08:50:05;;;;;;;14.33;9.80;;;;;31.60;97098.00;;;;5108158;28;20214;-70
2023/08/23 08:52:54;;;;;;;10.83;8.97;;;;;31.50;97101.00;;;;5104871;28;20234;-68
2023/08/23 08:55:44;;;;;;;10.80;9.23;;;;;31.50;97088.00;;;;5108721;28;20220;-69
2023/08/23 08:58:33;;;;;;;10.37;9.10;;;;;31.70;97082.00;;;;5105581;28;20199;-67
2023/08/23 09:01:23;;;;;;;15.87;10.47;;;;;31.90;97080.00;;;;5108997;28;20209;-70
2023/08/23 09:04:13;;;;;;;15.55;9.40;;;;;32.30;97077.00;;;;5103695;28;20230;-70
2023/08/23 09:07:02;;;;;;;13.10;10.20;;;;;32.20;97073.00;;;;5103642;28;20593;-68
2023/08/23 09:09:52;;;;;;;11.43;9.70;;;;;32.80;97063.00;;;;5099870;28;20561;-68
2023/08/23 09:12:41;;;;;;;17.03;10.13;;;;;33.40;97063.00;;;;5107994;28;20222;-68
2023/08/23 09:15:31;;;;;;;12.27;8.32;;;;;33.30;97071.00;;;;5106779;28;20732;-68
2023/08/23 09:18:20;;;;;;;14.85;9.57;;;;;33.20;97068.00;;;;5107658;28;20202;-68
2023/08/23 09:21:12;;;;;;;10.85;9.05;;;;;33.10;97064.00;;;;5109447;28;20211;-68
2023/08/23 09:24:01;;;;;;;9.85;8.85;;;;;33.10;97058.00;;;;5100189;22;20243;-67
2023/08/23 09:26:50;;;;;;;10.80;9.02;;;;;33.30;97060.00;;;;5065454;28;20206;-68
2023/08/23 09:29:39;;;;;;;10.93;8.75;;;;;33.80;97057.00;;;;5064920;28;20208;-67
2023/08/23 09:32:28;;;;;;;11.57;8.93;;;;;34.10;97054.00;;;;5060508;28;20235;-69
2023/08/23 09:35:18;;;;;;;10.70;7.70;;;;;34.20;97059.00;;;;5059077;28;20265;-68
2023/08/23 09:38:09;;;;;;;12.52;8.65;;;;;34.40;97050.00;;;;5061862;28;20214;-68
2023/08/23 09:40:59;;;;;;;10.73;8.95;;;;;34.60;97045.00;;;;5066372;28;20709;-68
2023/08/23 09:43:50;;;;;;;10.40;8.55;;;;;34.60;97045.00;;;;5064126;28;20240;-68
2023/08/23 09:46:40;;;;;;;12.75;9.07;;;;;34.90;97042.00;;;;5060402;28;20201;-68
2023/08/23 09:49:31;;;;;;;9.38;8.07;;;;;35.00;97040.00;;;;5058742;28;20209;-69
2023/08/23 09:52:21;;;;;;;12.43;8.18;;;;;35.00;97042.00;;;;5060483;28;20222;-69
2023/08/23 09:55:13;;;;;;;10.43;8.63;;;;;35.40;97043.00;;;;5051399;28;20220;-69
2023/08/23 09:58:03;;;;;;;12.43;9.07;;;;;35.80;97043.00;;;;5053929;28;20706;-69
2023/08/23 10:00:53;;;;;;;8.57;7.25;;;;;36.20;97029.00;;;;5060515;28;20207;-68
2023/08/23 10:03:43;;;;;;;12.35;8.45;;;;;36.20;97025.00;;;;5056710;28;20220;-68
2023/08/23 10:06:32;;;;;;;9.90;8.43;;;;;36.60;97010.00;;;;5057418;28;20218;-68
2023/08/23 10:09:22;;;;;;;10.00;8.73;;;;;36.70;97042.00;;;;5068166;28;20207;-69
2023/08/23 10:12:13;;;;;;;10.43;8.73;;;;;36.30;97029.00;;;;5065492;28;20207;-68
2023/08/23 10:15:02;;;;;;;10.32;7.97;;;;;36.50;97011.00;;;;5056550;28;20219;-68
2023/08/23 10:17:51;;;;;;;9.77;8.18;;;;;37.30;97033.00;;;;5047254;28;20211;-68
2023/08/23 10:20:41;;;;;;;9.70;8.38;;;;;36.60;97028.00;;;;5060085;28;20238;-68
2023/08/23 10:23:31;;;;;;;10.15;8.20;;;;;36.30;97025.00;;;;5056320;28;20232;-68
2023/08/23 10:26:21;;;;;;;9.85;8.10;;;;;36.00;97022.00;;;;5057711;28;20196;-68
2023/08/23 10:29:11;;;;;;;9.40;8.25;;;;;35.50;97018.00;;;;5061963;28;20203;-68
2023/08/23 10:32:04;;;;;;;12.23;9.50;;;;;35.20;97011.00;;;;5068025;28;20200;-68
2023/08/23 10:34:53;;;;;;;13.40;9.25;;;;;35.20;97025.00;;;;5065698;28;20211;-68
2023/08/23 10:37:42;;;;;;;11.63;8.23;;;;;34.80;97030.00;;;;5068480;28;20199;-68
2023/08/23 10:40:32;;;;;;;10.18;8.07;;;;;34.20;97048.00;;;;5070721;28;20215;-68
2023/08/23 10:43:22;;;;;;;8.32;7.03;;;;;33.70;97050.00;;;;5068139;28;20227;-67
2023/08/23 10:46:12;;;;;;;12.43;8.88;;;;;33.30;97061.00;;;;5067866;28;20214;-67
2023/08/23 10:49:02;;;;;;;15.18;8.10;;;;;32.50;97057.00;;;;5056225;28;20211;-67
2023/08/23 10:51:52;;;;;;;9.13;8.18;;;;;31.70;97066.00;;;;5064814;28;20573;-67
2023/08/23 10:54:42;;;;;;;11.48;8.35;;;;;31.30;97080.00;;;;5069773;28;20233;-68
2023/08/23 10:57:31;;;;;;;17.65;9.93;;;;;29.60;97068.00;;;;5059373;28;20216;-67
2023/08/23 11:00:20;;;;;;;21.00;9.57;;;;;29.50;97060.00;;;;5063748;28;20220;-66
2023/08/23 11:03:12;;;;;;;10.53;8.70;;;;;28.60;97064.00;;;;5065464;28;20199;-68
2023/08/23 11:06:02;;;;;;;10.37;9.13;;;;;28.60;97088.00;;;;5055521;28;20210;-67
2023/08/23 11:08:52;;;;;;;14.20;9.90;;;;;27.10;97114.00;;;;5070969;28;20205;-67
2023/08/23 11:11:41;;;;;;;12.63;10.33;;;;;26.30;97137.00;;;;5063436;28;20248;-66
2023/08/23 11:14:30;;;;;;;13.93;9.27;;;;;26.50;97146.00;;;;5068093;28;20738;-66
2023/08/23 11:17:20;;;;;;;13.40;8.57;;;;;26.40;97142.00;;;;5063105;28;20205;-70
2023/08/23 11:20:11;;;;;;;16.83;10.33;;;;;26.20;97134.00;;;;5066114;28;20209;-69
2023/08/23 11:23:00;;;;;;;14.23;11.50;;;;;26.80;97104.00;;;;5057333;28;20203;-70
2023/08/23 11:25:49;;;;;;;22.30;12.13;;;;;26.00;97099.00;;;;5068130;28;20205;-70
2023/08/23 11:28:38;;;;;;;16.87;11.90;;;;;25.50;97114.00;;;;5065327;28;20200;-68
2023/08/23 11:31:28;;;;;;;18.47;11.97;;;;;25.60;97127.00;;;;5059209;28;20204;-69
2023/08/23 11:34:17;;;;;;;14.33;10.27;;;;;26.00;97140.00;;;;5058913;28;20223;-68
2023/08/23 11:37:11;;;;;;;18.97;13.50;;;;;26.30;97149.00;;;;5064918;28;20595;-69
2023/08/23 11:40:07;;;;;;;15.33;12.33;;;;;26.50;97162.00;;;;5061895;28;20575;-69
2023/08/23 11:42:57;;;;;;;12.67;11.47;;;;;26.10;97163.00;;;;5060183;28;20765;-68
2023/08/23 11:45:56;;;;;;;15.57;11.60;;;;;26.50;97148.00;;;;5068858;28;20200;-68
2023/08/23 11:48:45;;;;;;;13.40;11.53;;;;;26.20;97144.00;;;;5060809;28;21089;-68
2023/08/23 11:51:44;;;;;;;13.37;11.97;;;;;25.80;97138.00;;;;5058557;28;20774;-68
2023/08/23 11:54:34;;;;;;;16.37;11.03;;;;;25.80;97150.00;;;;5065610;28;20236;-68
2023/08/23 11:57:23;;;;;;;14.80;12.03;;;;;25.70;97150.00;;;;5058261;28;20207;-68
2023/08/23 12:00:12;;;;;;;13.33;11.87;;;;;25.70;97142.00;;;;5057331;28;20215;-68
2023/08/23 12:03:01;;;;;;;14.83;10.33;;;;;25.90;97140.00;;;;5054540;28;20223;-69
2023/08/23 12:05:50;;;;;;;14.27;11.53;;;;;26.00;97160.00;;;;5062790;28;20211;-68
2023/08/23 12:08:39;;;;;;;16.67;12.17;;;;;26.10;97149.00;;;;5064349;28;20268;-68
2023/08/23 12:11:30;;;;;;;13.90;12.27;;;;;26.20;97141.00;;;;5064716;28;20204;-68
2023/08/23 12:14:19;;;;;;;13.73;9.63;;;;;26.20;97151.00;;;;5061986;28;20231;-68
2023/08/23 12:17:08;;;;;;;10.70;9.60;;;;;26.10;97156.00;;;;5058125;28;20216;-68
2023/08/23 12:19:57;;;;;;;12.70;11.07;;;;;26.00;97149.00;;;;5056640;28;20201;-68
2023/08/23 12:22:47;;;;;;;12.43;10.00;;;;;26.10;97156.00;;;;5055987;28;20679;-68
2023/08/23 12:25:35;;;;;;;13.80;9.70;;;;;26.00;97146.00;;;;5056749;28;20200;-68
2023/08/23 12:28:26;;;;;;;9.53;8.60;;;;;26.00;97152.00;;;;5064842;28;20200;-68
2023/08/23 12:31:16;;;;;;;11.33;8.57;;;;;26.00;97172.00;;;;5061195;28;20563;-69
2023/08/23 12:34:05;;;;;;;11.17;8.90;;;;;26.10;97181.00;;;;5067401;28;20228;-68
2023/08/23 12:36:54;;;;;;;10.43;8.27;;;;;25.90;97176.00;;;;5063023;28;20212;-68
2023/08/23 12:39:43;;;;;;;9.03;7.77;;;;;25.70;97178.00;;;;5068812;28;20679;-69
2023/08/23 12:42:32;;;;;;;9.83;7.80;;;;;25.70;97172.00;;;;5059501;28;20612;-69
2023/08/23 12:45:22;;;;;;;8.83;6.13;;;;;25.50;97155.00;;;;5057401;28;20220;-69
2023/08/23 12:48:11;;;;;;;8.03;5.93;;;;;25.60;97159.00;;;;5060852;28;20579;-69
2023/08/23 12:51:00;;;;;;;10.07;6.83;;;;;25.30;97157.00;;;;5057849;28;20201;-69
2023/08/23 12:53:49;;;;;;;9.43;6.40;;;;;25.40;97139.00;;;;5056422;28;20627;-70
2023/08/23 12:56:39;;;;;;;8.40;5.70;;;;;25.30;97142.00;;;;5068858;28;20207;-69
2023/08/23 12:59:28;;;;;;;8.50;6.57;;;;;25.70;97134.00;;;;5067436;28;20727;-69
2023/08/23 13:02:18;;;;;;;8.77;6.47;;;;;25.90;97146.00;;;;5059249;28;20207;-70
2023/08/23 13:05:08;;;;;;;6.70;6.00;;;;;26.00;97146.00;;;;5054052;28;20235;-70
2023/08/23 13:07:57;;;;;;;10.20;7.10;;;;;25.80;97126.00;;;;5059980;28;20203;-70
2023/08/23 13:10:46;;;;;;;9.17;5.73;;;;;26.00;97117.00;;;;5061143;28;20205;-69
2023/08/23 13:13:36;;;;;;;8.43;6.10;;;;;25.60;97109.00;;;;5064530;28;20216;-70
2023/08/23 13:16:25;;;;;;;7.20;6.20;;;;;26.00;97087.00;;;;5068306;28;20675;-70
2023/08/23 13:19:15;;;;;;;9.73;6.83;;;;;25.80;97083.00;;;;5059828;28;20207;-70
2023/08/23 13:22:04;;;;;;;9.90;6.03;;;;;26.80;97063.00;;;;5059622;28;20200;-69
2023/08/23 13:24:53;;;;;;;8.77;5.63;;;;;27.70;97035.00;;;;5065847;28;20239;-70
2023/08/23 13:27:42;;;;;;;7.57;6.77;;;;;28.80;97029.00;;;;5065999;28;20433;-70
2023/08/23 13:30:32;;;;;;;10.63;7.10;;;;;27.60;97023.00;;;;5051277;28;20212;-71
2023/08/23 13:33:21;;;;;;;8.67;5.53;;;;;28.20;97018.00;;;;5067933;28;20226;-71
2023/08/23 13:36:11;;;;;;;10.53;5.63;;;;;28.00;97025.00;;;;5048015;28;20207;-73
2023/08/23 13:39:00;;;;;;;6.20;5.10;;;;;28.50;97007.00;;;;5051602;28;20196;-74
2023/08/23 13:41:49;;;;;;;5.37;4.87;;;;;29.10;97002.00;;;;5048702;28;20219;-73
2023/08/23 13:44:38;;;;;;;8.27;5.13;;;;;29.90;96979.00;;;;5048180;28;20252;-71
2023/08/23 13:47:27;;;;;;;6.97;5.43;;;;;30.20;96966.00;;;;5065651;28;20205;-70
2023/08/23 13:50:16;;;;;;;8.07;6.20;;;;;30.00;96964.00;;;;5063866;28;20202;-70
2023/08/23 13:53:06;;;;;;;9.10;6.57;;;;;30.20;96953.00;;;;5051608;28;20216;-69